^^
Grace C. Lehan Memorial Weather Station Historical Data
Daily Summary for May 8, 2021 Units:  Both    English   Metric
Daily Weekly Monthly Yearly
  High: Low: Average:
Temperature: 51.6 °F /  10.9 °C 46.1 °F /  7.8 °C 48.3 °F /  9.1 °C
Dew Point: 42.2 °F /  5.7 °C 40.3 °F /  4.6 °C 41.2 °F /  5.1 °C
Humidity: 84% 66.1% 76%
Wind Speed: 1.5mph /  2.4km/h - 0.1mph /  0.2km/h
Wind Gust: 7mph /  11.3km/h - -
Wind- - SE
Pressure: 29.87 in /  1011.4 hPa 29.80 in /  1009 hPa -
Precipitation: 0.00 in /  0 mm    
 
 
Tabular Data for May 8, 2021
Time Temperature Dew Point Pressure Wind Wind Speed Wind Gust Humidity Rainfall Rate (Hourly) solar
00:00 50 °F /  10 °C 40.6 °F /  4.8 °C 29.86in /  1011.1hPa Calm     70% 0.00in /  0mm 0 W/m2
00:09 49.9 °F /  9.9 °C 40.5 °F /  4.7 °C 29.87in /  1011.4hPa Calm     70% 0.00in /  0mm 0 W/m2
00:14 49.8 °F /  9.9 °C 40.4 °F /  4.7 °C 29.87in /  1011.4hPa Calm     70% 0.00in /  0mm 0 W/m2
00:19 49.7 °F /  9.8 °C 40.3 °F /  4.6 °C 29.87in /  1011.4hPa Calm     70% 0.00in /  0mm 0 W/m2
00:24 49.7 °F /  9.8 °C 40.3 °F /  4.6 °C 29.87in /  1011.4hPa Calm     70% 0.00in /  0mm 0 W/m2
00:29 49.7 °F /  9.8 °C 40.5 °F /  4.7 °C 29.87in /  1011.4hPa Calm     70.6% 0.00in /  0mm 0 W/m2
00:34 49.7 °F /  9.8 °C 40.7 °F /  4.8 °C 29.87in /  1011.4hPa Calm     71% 0.00in /  0mm 0 W/m2
00:39 49.7 °F /  9.8 °C 40.7 °F /  4.8 °C 29.87in /  1011.4hPa Calm     71% 0.00in /  0mm 0 W/m2
00:44 49.6 °F /  9.8 °C 40.5 °F /  4.7 °C 29.87in /  1011.4hPa Calm     70.7% 0.00in /  0mm 0 W/m2
00:49 49.7 °F /  9.8 °C 41 °F /  5 °C 29.87in /  1011.4hPa Calm     71.8% 0.00in /  0mm 0 W/m2
00:54 49.7 °F /  9.8 °C 41.4 °F /  5.2 °C 29.86in /  1011.1hPa Calm     72.9% 0.00in /  0mm 0 W/m2
00:59 49.7 °F /  9.8 °C 41.7 °F /  5.4 °C 29.86in /  1011.1hPa Calm     73.8% 0.00in /  0mm 0 W/m2
01:04 49.7 °F /  9.8 °C 41.8 °F /  5.4 °C 29.85in /  1010.7hPa Calm     74.1% 0.00in /  0mm 0 W/m2
01:09 49.7 °F /  9.8 °C 42.1 °F /  5.6 °C 29.85in /  1010.7hPa Calm     75% 0.00in /  0mm 0 W/m2
01:14 49.7 °F /  9.8 °C 42.1 °F /  5.6 °C 29.85in /  1010.7hPa Calm     75% 0.00in /  0mm 0 W/m2
01:19 49.7 °F /  9.8 °C 42.1 °F /  5.6 °C 29.85in /  1010.7hPa Calm     75% 0.00in /  0mm 0 W/m2
01:24 49.6 °F /  9.8 °C 42 °F /  5.6 °C 29.85in /  1010.7hPa Calm     74.9% 0.00in /  0mm 0 W/m2
01:29 49.6 °F /  9.8 °C 41.7 °F /  5.4 °C 29.84in /  1010.4hPa Calm     74% 0.00in /  0mm 0 W/m2
01:34 49.5 °F /  9.7 °C 41.5 °F /  5.3 °C 29.84in /  1010.4hPa Calm     73.7% 0.00in /  0mm 0 W/m2
01:39 49.4 °F /  9.7 °C 41.6 °F /  5.3 °C 29.84in /  1010.4hPa Calm     74.4% 0.00in /  0mm 0 W/m2
01:44 49.4 °F /  9.7 °C 41.9 °F /  5.5 °C 29.84in /  1010.4hPa Calm     75.4% 0.00in /  0mm 0 W/m2
01:49 49.3 °F /  9.6 °C 42.1 °F /  5.6 °C 29.84in /  1010.4hPa Calm     76% 0.00in /  0mm 0 W/m2
01:54 49.3 °F /  9.6 °C 42 °F /  5.6 °C 29.84in /  1010.4hPa Calm     76% 0.00in /  0mm 0 W/m2
01:59 49.2 °F /  9.6 °C 41.9 °F /  5.5 °C 29.84in /  1010.4hPa Calm     75.9% 0.00in /  0mm 0 W/m2
02:04 49.1 °F /  9.5 °C 41.5 °F /  5.3 °C 29.84in /  1010.4hPa Calm     75% 0.00in /  0mm 0 W/m2
02:09 49 °F /  9.4 °C 41.2 °F /  5.1 °C 29.84in /  1010.4hPa Calm     74.2% 0.00in /  0mm 0 W/m2
02:14 49 °F /  9.4 °C 40.9 °F /  4.9 °C 29.83in /  1010hPa Calm     73.6% 0.00in /  0mm 0 W/m2
02:19 48.9 °F /  9.4 °C 40.6 °F /  4.8 °C 29.83in /  1010hPa Calm     73% 0.00in /  0mm 0 W/m2
02:24 48.8 °F /  9.3 °C 40.8 °F /  4.9 °C 29.83in /  1010hPa Calm     73.7% 0.00in /  0mm 0 W/m2
02:29 48.8 °F /  9.3 °C 40.9 °F /  4.9 °C 29.83in /  1010hPa Calm     74% 0.00in /  0mm 0 W/m2
02:34 48.7 °F /  9.3 °C 40.8 °F /  4.9 °C 29.83in /  1010hPa Calm     74% 0.00in /  0mm 0 W/m2
02:39 48.7 °F /  9.3 °C 40.8 °F /  4.9 °C 29.83in /  1010hPa Calm     74% 0.00in /  0mm 0 W/m2
02:44 48.6 °F /  9.2 °C 40.7 °F /  4.8 °C 29.83in /  1010hPa Calm     74% 0.00in /  0mm 0 W/m2
02:49 48.5 °F /  9.2 °C 40.6 °F /  4.8 °C 29.83in /  1010hPa Calm     74% 0.00in /  0mm 0 W/m2
02:54 48.5 °F /  9.2 °C 40.6 °F /  4.8 °C 29.82in /  1009.7hPa Calm     74% 0.00in /  0mm 0 W/m2
02:59 48.4 °F /  9.1 °C 40.6 °F /  4.8 °C 29.82in /  1009.7hPa Calm     74.3% 0.00in /  0mm 0 W/m2
03:04 48.3 °F /  9.1 °C 40.9 °F /  4.9 °C 29.82in /  1009.7hPa Calm     75.5% 0.00in /  0mm 0 W/m2
03:09 48.2 °F /  9 °C 41 °F /  5 °C 29.82in /  1009.7hPa Calm     76.1% 0.00in /  0mm 0 W/m2
03:14 48.1 °F /  8.9 °C 41.2 °F /  5.1 °C 29.82in /  1009.7hPa Calm     76.9% 0.00in /  0mm 0 W/m2
03:19 48 °F /  8.9 °C 41 °F /  5 °C 29.82in /  1009.7hPa Calm     76.7% 0.00in /  0mm 0 W/m2
03:24 47.9 °F /  8.8 °C 40.7 °F /  4.8 °C 29.82in /  1009.7hPa Calm     76% 0.00in /  0mm 0 W/m2
03:29 47.8 °F /  8.8 °C 40.6 °F /  4.8 °C 29.82in /  1009.7hPa Calm     76% 0.00in /  0mm 0 W/m2
03:34 47.7 °F /  8.7 °C 40.7 °F /  4.8 °C 29.82in /  1009.7hPa Calm     76.6% 0.00in /  0mm 0 W/m2
03:39 47.6 °F /  8.7 °C 40.7 °F /  4.8 °C 29.82in /  1009.7hPa Calm     77% 0.00in /  0mm 0 W/m2
03:44 47.4 °F /  8.6 °C 40.6 °F /  4.8 °C 29.82in /  1009.7hPa Calm     77% 0.00in /  0mm 0 W/m2
03:49 47.3 °F /  8.5 °C 40.5 °F /  4.7 °C 29.81in /  1009.4hPa Calm     77% 0.00in /  0mm 0 W/m2
03:54 47.2 °F /  8.4 °C 40.4 °F /  4.7 °C 29.81in /  1009.4hPa Calm     77% 0.00in /  0mm 0 W/m2
03:59 47.2 °F /  8.4 °C 40.4 °F /  4.7 °C 29.81in /  1009.4hPa Calm     77% 0.00in /  0mm 0 W/m2
04:00 47.1 °F /  8.4 °C 40.6 °F /  4.8 °C 29.81in /  1009.4hPa Calm     78% 0.00in /  0mm 0 W/m2
04:09 47 °F /  8.3 °C 40.7 °F /  4.8 °C 29.80in /  1009hPa Calm     78.5% 0.00in /  0mm 0 W/m2
04:14 47 °F /  8.3 °C 40.8 °F /  4.9 °C 29.80in /  1009hPa Calm     79.1% 0.00in /  0mm 0 W/m2
04:19 46.9 °F /  8.3 °C 40.9 °F /  4.9 °C 29.80in /  1009hPa Calm     79.6% 0.00in /  0mm 0 W/m2
04:24 46.8 °F /  8.2 °C 41 °F /  5 °C 29.80in /  1009hPa Calm     80% 0.00in /  0mm 0 W/m2
04:29 46.8 °F /  8.2 °C 41 °F /  5 °C 29.80in /  1009hPa Calm     80% 0.00in /  0mm 0 W/m2
04:34 46.8 °F /  8.2 °C 40.9 °F /  4.9 °C 29.80in /  1009hPa Calm     80% 0.00in /  0mm 0 W/m2
04:39 46.7 °F /  8.2 °C 41.2 °F /  5.1 °C 29.80in /  1009hPa Calm     81% 0.00in /  0mm 0 W/m2
04:44 46.6 °F /  8.1 °C 41.1 °F /  5.1 °C 29.80in /  1009hPa Calm     81% 0.00in /  0mm 0 W/m2
04:49 46.5 °F /  8.1 °C 41.3 °F /  5.2 °C 29.80in /  1009hPa Calm     81.8% 0.00in /  0mm 0 W/m2
04:54 46.5 °F /  8.1 °C 41.3 °F /  5.2 °C 29.80in /  1009hPa Calm     82% 0.00in /  0mm 0 W/m2
04:59 46.5 °F /  8.1 °C 41.3 °F /  5.2 °C 29.80in /  1009hPa Calm     82% 0.00in /  0mm 0 W/m2
05:04 46.5 °F /  8.1 °C 41.3 °F /  5.2 °C 29.80in /  1009hPa Calm     82% 0.00in /  0mm 0 W/m2
05:09 46.5 °F /  8.1 °C 41.3 °F /  5.2 °C 29.81in /  1009.4hPa Calm     82% 0.00in /  0mm 0 W/m2
05:14 46.5 °F /  8.1 °C 41.3 °F /  5.2 °C 29.81in /  1009.4hPa Calm     82% 0.00in /  0mm 0 W/m2
05:19 46.5 °F /  8.1 °C 41.3 °F /  5.2 °C 29.80in /  1009hPa Calm     82% 0.00in /  0mm 0 W/m2
05:24 46.5 °F /  8.1 °C 41.4 °F /  5.2 °C 29.80in /  1009hPa Calm     82.3% 0.00in /  0mm 0 W/m2
05:29 46.5 °F /  8.1 °C 41.5 °F /  5.3 °C 29.80in /  1009hPa Calm     82.8% 0.00in /  0mm 0 W/m2
05:34 46.5 °F /  8.1 °C 41.6 °F /  5.3 °C 29.80in /  1009hPa Calm     83% 0.00in /  0mm 0 W/m2
05:39 46.4 °F /  8 °C 41.6 °F /  5.3 °C 29.80in /  1009hPa Calm     83% 0.00in /  0mm 0 W/m2
05:44 46.4 °F /  8 °C 41.6 °F /  5.3 °C 29.80in /  1009hPa Calm     83.2% 0.00in /  0mm 0 W/m2
05:49 46.3 °F /  7.9 °C 41.8 °F /  5.4 °C 29.80in /  1009hPa Calm   1mph /  1.6km/h 84% 0.00in /  0mm 0 W/m2
05:54 46.3 °F /  7.9 °C 41.7 °F /  5.4 °C 29.80in /  1009hPa Calm   1mph /  1.6km/h 84% 0.00in /  0mm 5 W/m2
05:59 46.3 °F /  7.9 °C 41.5 °F /  5.3 °C 29.80in /  1009hPa Calm   1mph /  1.6km/h 83.5% 0.00in /  0mm 7 W/m2
06:04 46.2 °F /  7.9 °C 41.5 °F /  5.3 °C 29.80in /  1009hPa Calm   1mph /  1.6km/h 83.5% 0.00in /  0mm 11 W/m2
06:09 46.2 °F /  7.9 °C 41.4 °F /  5.2 °C 29.80in /  1009hPa Calm     83.3% 0.00in /  0mm 12 W/m2
06:14 46.1 °F /  7.8 °C 41.2 °F /  5.1 °C 29.80in /  1009hPa Calm     83% 0.00in /  0mm 14 W/m2
06:19 46.1 °F /  7.8 °C 41.2 °F /  5.1 °C 29.80in /  1009hPa Calm     83% 0.00in /  0mm 14 W/m2
06:24 46.2 °F /  7.9 °C 41.3 °F /  5.2 °C 29.81in /  1009.4hPa SSW 0.1mph /  0.2km/h 2mph /  3.2km/h 83% 0.00in /  0mm 16 W/m2
06:29 46.2 °F /  7.9 °C 41.3 °F /  5.2 °C 29.80in /  1009hPa SSW 0.3mph /  0.5km/h 4mph /  6.4km/h 83% 0.00in /  0mm 18 W/m2
06:34 46.2 °F /  7.9 °C 41.2 °F /  5.1 °C 29.80in /  1009hPa Calm   4mph /  6.4km/h 82.6% 0.00in /  0mm 19 W/m2
06:39 46.3 °F /  7.9 °C 41.1 °F /  5.1 °C 29.81in /  1009.4hPa Calm     82% 0.00in /  0mm 21 W/m2
06:44 46.4 °F /  8 °C 41.2 °F /  5.1 °C 29.81in /  1009.4hPa Calm     82% 0.00in /  0mm 25 W/m2
06:49 46.5 °F /  8.1 °C 41.2 °F /  5.1 °C 29.81in /  1009.4hPa SSW 0.1mph /  0.2km/h 2mph /  3.2km/h 81.8% 0.00in /  0mm 30 W/m2
06:54 46.6 °F /  8.1 °C 41.1 °F /  5.1 °C 29.81in /  1009.4hPa SSW 0.1mph /  0.2km/h 2mph /  3.2km/h 81% 0.00in /  0mm 35 W/m2
06:59 46.8 °F /  8.2 °C 41.2 °F /  5.1 °C 29.81in /  1009.4hPa SSW 0.1mph /  0.2km/h 2mph /  3.2km/h 81% 0.00in /  0mm 44 W/m2
07:04 46.9 °F /  8.3 °C 41.4 °F /  5.2 °C 29.81in /  1009.4hPa Calm   2mph /  3.2km/h 81% 0.00in /  0mm 51 W/m2
07:09 47.1 °F /  8.4 °C 41.5 °F /  5.3 °C 29.82in /  1009.7hPa Calm     80.9% 0.00in /  0mm 58 W/m2
07:14 47.3 °F /  8.5 °C 41.6 °F /  5.3 °C 29.82in /  1009.7hPa Calm     80.4% 0.00in /  0mm 63 W/m2
07:19 47.5 °F /  8.6 °C 42 °F /  5.6 °C 29.82in /  1009.7hPa Calm     81% 0.00in /  0mm 69 W/m2
07:24 47.7 °F /  8.7 °C 41.9 °F /  5.5 °C 29.82in /  1009.7hPa Calm     80.1% 0.00in /  0mm 76 W/m2
07:29 47.9 °F /  8.8 °C 42.1 °F /  5.6 °C 29.82in /  1009.7hPa Calm     80% 0.00in /  0mm 81 W/m2
07:30 48.1 °F /  8.9 °C 42.2 °F /  5.7 °C 29.82in /  1009.7hPa Calm     80% 0.00in /  0mm 64 W/m2
08:04 49.3 °F /  9.6 °C 41.4 °F /  5.2 °C 29.83in /  1010hPa Calm     74% 0.00in /  0mm 95 W/m2
08:09 49.4 °F /  9.7 °C 41.4 °F /  5.2 °C 29.83in /  1010hPa Calm     73.8% 0.00in /  0mm 95 W/m2
08:14 49.5 °F /  9.7 °C 41.4 °F /  5.2 °C 29.84in /  1010.4hPa Calm   1mph /  1.6km/h 73.5% 0.00in /  0mm 93 W/m2
08:19 49.6 °F /  9.8 °C 41 °F /  5 °C 29.84in /  1010.4hPa Calm   1mph /  1.6km/h 72.1% 0.00in /  0mm 93 W/m2
08:24 49.7 °F /  9.8 °C 40.7 °F /  4.8 °C 29.84in /  1010.4hPa NNW 0.1mph /  0.2km/h 3mph /  4.8km/h 71% 0.00in /  0mm 95 W/m2
08:29 49.7 °F /  9.8 °C 40.6 °F /  4.8 °C 29.85in /  1010.7hPa Calm   3mph /  4.8km/h 70.6% 0.00in /  0mm 102 W/m2
08:34 49.8 °F /  9.9 °C 40.4 °F /  4.7 °C 29.85in /  1010.7hPa Calm   3mph /  4.8km/h 70% 0.00in /  0mm 111 W/m2
08:39 49.9 °F /  9.9 °C 40.8 °F /  4.9 °C 29.85in /  1010.7hPa NE 0.6mph /  1km/h 5mph /  8km/h 70.7% 0.00in /  0mm 120 W/m2
08:44 50 °F /  10 °C 40.3 °F /  4.6 °C 29.85in /  1010.7hPa Calm   5mph /  8km/h 69.2% 0.00in /  0mm 127 W/m2
08:49 50 °F /  10 °C 40.3 °F /  4.6 °C 29.85in /  1010.7hPa ENE 0.3mph /  0.5km/h 5mph /  8km/h 69.1% 0.00in /  0mm 137 W/m2
08:54 50 °F /  10 °C 40.5 °F /  4.7 °C 29.85in /  1010.7hPa NE 0.2mph /  0.3km/h 5mph /  8km/h 69.7% 0.00in /  0mm 156 W/m2
08:59 50.2 °F /  10.1 °C 41 °F /  5 °C 29.85in /  1010.7hPa ENE 0.7mph /  1.1km/h 5mph /  8km/h 70.6% 0.00in /  0mm 171 W/m2
09:04 50.3 °F /  10.2 °C 41.4 °F /  5.2 °C 29.85in /  1010.7hPa Calm   5mph /  8km/h 71.2% 0.00in /  0mm 181 W/m2
09:09 50.6 °F /  10.3 °C 41.8 °F /  5.4 °C 29.85in /  1010.7hPa Calm   2mph /  3.2km/h 71.7% 0.00in /  0mm 195 W/m2
09:14 50.9 °F /  10.5 °C 42 °F /  5.6 °C 29.85in /  1010.7hPa Calm   2mph /  3.2km/h 71.5% 0.00in /  0mm 220 W/m2
09:19 51.1 °F /  10.6 °C 41.9 °F /  5.5 °C 29.85in /  1010.7hPa ENE 0.1mph /  0.2km/h 2mph /  3.2km/h 70.6% 0.00in /  0mm 234 W/m2
09:24 51.4 °F /  10.8 °C 41.5 °F /  5.3 °C 29.86in /  1011.1hPa ENE 0.1mph /  0.2km/h 3mph /  4.8km/h 68.8% 0.00in /  0mm 236 W/m2
09:29 51.5 °F /  10.8 °C 41 °F /  5 °C 29.86in /  1011.1hPa ENE 0.5mph /  0.8km/h 4mph /  6.4km/h 67.2% 0.00in /  0mm 234 W/m2
09:34 51.5 °F /  10.8 °C 40.6 °F /  4.8 °C 29.86in /  1011.1hPa ESE 0.6mph /  1km/h 5mph /  8km/h 66.1% 0.00in /  0mm 230 W/m2
09:39 51.5 °F /  10.8 °C 40.7 °F /  4.8 °C 29.86in /  1011.1hPa NE 1.1mph /  1.8km/h 7mph /  11.3km/h 66.4% 0.00in /  0mm 230 W/m2
09:43 51.6 °F /  10.9 °C 40.7 °F /  4.8 °C 29.86in /  1011.1hPa NE 1.5mph /  2.4km/h 7mph /  11.3km/h 66.3% 0.00in /  0mm 229 W/m2
Hartford County Weather
Compliments of Weather Underground - 2 mb